sensor_id;sensor_type;location;lat;lon;timestamp;P1;durP1;ratioP1;P2;durP2;ratioP2
34489;SDS011;20730;49.372;7.324;2023-04-24T00:02:09;2.03;;;1.10;;
34489;SDS011;20730;49.372;7.324;2023-04-24T00:04:37;3.33;;;1.42;;
34489;SDS011;20730;49.372;7.324;2023-04-24T00:07:07;3.75;;;0.95;;
34489;SDS011;20730;49.372;7.324;2023-04-24T00:09:35;2.88;;;0.93;;
34489;SDS011;20730;49.372;7.324;2023-04-24T00:12:03;4.05;;;1.27;;
34489;SDS011;20730;49.372;7.324;2023-04-24T00:14:31;3.15;;;1.38;;
34489;SDS011;20730;49.372;7.324;2023-04-24T00:16:59;2.80;;;1.00;;
34489;SDS011;20730;49.372;7.324;2023-04-24T00:19:27;1.95;;;1.08;;
34489;SDS011;20730;49.372;7.324;2023-04-24T00:21:54;2.88;;;1.10;;
34489;SDS011;20730;49.372;7.324;2023-04-24T00:24:22;2.53;;;1.05;;
34489;SDS011;20730;49.372;7.324;2023-04-24T00:26:49;2.45;;;1.20;;
34489;SDS011;20730;49.372;7.324;2023-04-24T00:29:16;2.60;;;1.38;;
34489;SDS011;20730;49.372;7.324;2023-04-24T00:31:44;5.90;;;1.48;;
34489;SDS011;20730;49.372;7.324;2023-04-24T00:34:13;1.90;;;1.20;;
34489;SDS011;20730;49.372;7.324;2023-04-24T00:36:41;3.85;;;1.13;;
34489;SDS011;20730;49.372;7.324;2023-04-24T00:39:08;4.85;;;1.30;;
34489;SDS011;20730;49.372;7.324;2023-04-24T00:41:36;2.05;;;1.30;;
34489;SDS011;20730;49.372;7.324;2023-04-24T00:44:04;3.53;;;1.42;;
34489;SDS011;20730;49.372;7.324;2023-04-24T00:46:31;1.52;;;0.90;;
34489;SDS011;20730;49.372;7.324;2023-04-24T00:48:58;1.83;;;1.05;;
34489;SDS011;20730;49.372;7.324;2023-04-24T00:51:25;4.65;;;1.20;;
34489;SDS011;20730;49.372;7.324;2023-04-24T00:53:53;0.60;;;0.60;;
34489;SDS011;20730;49.372;7.324;2023-04-24T00:56:21;1.85;;;0.77;;
34489;SDS011;20730;49.372;7.324;2023-04-24T00:58:48;4.32;;;1.08;;
34489;SDS011;20730;49.372;7.324;2023-04-24T01:01:16;1.63;;;0.60;;
34489;SDS011;20730;49.372;7.324;2023-04-24T01:03:44;1.85;;;0.75;;
34489;SDS011;20730;49.372;7.324;2023-04-24T01:06:12;2.28;;;0.93;;
34489;SDS011;20730;49.372;7.324;2023-04-24T01:08:39;2.13;;;1.00;;
34489;SDS011;20730;49.372;7.324;2023-04-24T01:11:06;1.27;;;0.80;;
34489;SDS011;20730;49.372;7.324;2023-04-24T01:13:33;1.05;;;0.80;;
34489;SDS011;20730;49.372;7.324;2023-04-24T01:16:02;1.73;;;0.90;;
34489;SDS011;20730;49.372;7.324;2023-04-24T01:18:28;2.05;;;0.93;;
34489;SDS011;20730;49.372;7.324;2023-04-24T01:20:59;3.20;;;1.00;;
34489;SDS011;20730;49.372;7.324;2023-04-24T01:23:26;3.58;;;0.88;;
34489;SDS011;20730;49.372;7.324;2023-04-24T01:25:53;3.33;;;1.30;;
34489;SDS011;20730;49.372;7.324;2023-04-24T01:28:19;3.20;;;1.38;;
34489;SDS011;20730;49.372;7.324;2023-04-24T01:30:46;4.20;;;1.90;;
34489;SDS011;20730;49.372;7.324;2023-04-24T01:33:13;3.10;;;2.55;;
34489;SDS011;20730;49.372;7.324;2023-04-24T01:35:40;5.10;;;2.20;;
34489;SDS011;20730;49.372;7.324;2023-04-24T01:38:06;3.63;;;2.67;;
34489;SDS011;20730;49.372;7.324;2023-04-24T01:40:35;4.15;;;2.90;;
34489;SDS011;20730;49.372;7.324;2023-04-24T01:43:01;4.47;;;2.90;;
34489;SDS011;20730;49.372;7.324;2023-04-24T01:45:29;5.93;;;2.90;;
34489;SDS011;20730;49.372;7.324;2023-04-24T01:47:56;3.35;;;2.67;;
34489;SDS011;20730;49.372;7.324;2023-04-24T01:50:23;5.68;;;2.92;;
34489;SDS011;20730;49.372;7.324;2023-04-24T01:52:49;6.25;;;3.38;;
34489;SDS011;20730;49.372;7.324;2023-04-24T01:55:16;3.65;;;2.97;;
34489;SDS011;20730;49.372;7.324;2023-04-24T01:57:44;3.17;;;2.88;;
34489;SDS011;20730;49.372;7.324;2023-04-24T02:00:11;5.72;;;2.97;;
34489;SDS011;20730;49.372;7.324;2023-04-24T02:02:39;4.57;;;3.08;;
34489;SDS011;20730;49.372;7.324;2023-04-24T02:05:07;5.10;;;3.72;;
34489;SDS011;20730;49.372;7.324;2023-04-24T02:07:36;4.05;;;3.45;;
34489;SDS011;20730;49.372;7.324;2023-04-24T02:10:03;6.93;;;3.22;;
34489;SDS011;20730;49.372;7.324;2023-04-24T02:12:33;3.92;;;3.50;;
34489;SDS011;20730;49.372;7.324;2023-04-24T02:14:59;5.25;;;3.70;;
34489;SDS011;20730;49.372;7.324;2023-04-24T02:17:26;4.20;;;3.42;;
34489;SDS011;20730;49.372;7.324;2023-04-24T02:19:53;8.23;;;3.90;;
34489;SDS011;20730;49.372;7.324;2023-04-24T02:22:19;6.63;;;3.92;;
34489;SDS011;20730;49.372;7.324;2023-04-24T02:24:46;7.47;;;4.05;;
34489;SDS011;20730;49.372;7.324;2023-04-24T02:27:14;5.63;;;3.80;;
34489;SDS011;20730;49.372;7.324;2023-04-24T02:29:41;5.97;;;3.80;;
34489;SDS011;20730;49.372;7.324;2023-04-24T02:32:08;5.00;;;4.13;;
34489;SDS011;20730;49.372;7.324;2023-04-24T02:34:38;4.47;;;3.90;;
34489;SDS011;20730;49.372;7.324;2023-04-24T02:37:05;6.00;;;4.32;;
34489;SDS011;20730;49.372;7.324;2023-04-24T02:39:31;6.72;;;4.80;;
34489;SDS011;20730;49.372;7.324;2023-04-24T02:41:58;8.23;;;4.80;;
34489;SDS011;20730;49.372;7.324;2023-04-24T02:44:25;9.45;;;4.50;;
34489;SDS011;20730;49.372;7.324;2023-04-24T02:46:51;5.78;;;4.97;;
34489;SDS011;20730;49.372;7.324;2023-04-24T02:49:18;6.47;;;5.00;;
34489;SDS011;20730;49.372;7.324;2023-04-24T02:51:44;6.22;;;5.35;;
34489;SDS011;20730;49.372;7.324;2023-04-24T02:54:11;7.70;;;5.50;;
34489;SDS011;20730;49.372;7.324;2023-04-24T02:56:38;6.82;;;5.22;;
34489;SDS011;20730;49.372;7.324;2023-04-24T02:59:06;7.75;;;5.60;;
34489;SDS011;20730;49.372;7.324;2023-04-24T03:01:33;7.45;;;5.85;;
34489;SDS011;20730;49.372;7.324;2023-04-24T03:04:00;7.03;;;5.35;;
34489;SDS011;20730;49.372;7.324;2023-04-24T03:06:28;8.25;;;6.20;;
34489;SDS011;20730;49.372;7.324;2023-04-24T03:08:54;6.72;;;5.53;;
34489;SDS011;20730;49.372;7.324;2023-04-24T03:11:21;9.05;;;6.35;;
34489;SDS011;20730;49.372;7.324;2023-04-24T03:13:48;6.97;;;5.90;;
34489;SDS011;20730;49.372;7.324;2023-04-24T03:16:15;7.50;;;5.88;;
34489;SDS011;20730;49.372;7.324;2023-04-24T03:18:41;8.00;;;5.90;;
34489;SDS011;20730;49.372;7.324;2023-04-24T03:21:09;8.32;;;6.05;;
34489;SDS011;20730;49.372;7.324;2023-04-24T03:23:36;8.15;;;6.18;;
34489;SDS011;20730;49.372;7.324;2023-04-24T03:26:02;9.05;;;6.10;;
34489;SDS011;20730;49.372;7.324;2023-04-24T03:28:30;8.18;;;5.57;;
34489;SDS011;20730;49.372;7.324;2023-04-24T03:30:59;9.18;;;5.93;;
34489;SDS011;20730;49.372;7.324;2023-04-24T03:33:30;8.98;;;6.45;;
34489;SDS011;20730;49.372;7.324;2023-04-24T03:36:00;7.47;;;6.15;;
34489;SDS011;20730;49.372;7.324;2023-04-24T03:38:34;9.93;;;5.97;;
34489;SDS011;20730;49.372;7.324;2023-04-24T03:41:19;9.55;;;6.43;;
34489;SDS011;20730;49.372;7.324;2023-04-24T03:43:50;8.38;;;6.00;;
34489;SDS011;20730;49.372;7.324;2023-04-24T03:46:16;9.57;;;6.45;;
34489;SDS011;20730;49.372;7.324;2023-04-24T03:48:50;8.77;;;6.38;;
34489;SDS011;20730;49.372;7.324;2023-04-24T03:51:19;6.70;;;5.53;;
34489;SDS011;20730;49.372;7.324;2023-04-24T03:53:49;10.00;;;6.38;;
34489;SDS011;20730;49.372;7.324;2023-04-24T03:56:18;6.55;;;5.70;;
34489;SDS011;20730;49.372;7.324;2023-04-24T03:58:46;7.25;;;6.30;;
34489;SDS011;20730;49.372;7.324;2023-04-24T04:01:13;8.13;;;6.30;;
34489;SDS011;20730;49.372;7.324;2023-04-24T04:03:50;8.57;;;5.93;;
34489;SDS011;20730;49.372;7.324;2023-04-24T04:06:22;8.05;;;6.30;;
34489;SDS011;20730;49.372;7.324;2023-04-24T04:08:50;9.88;;;7.05;;
34489;SDS011;20730;49.372;7.324;2023-04-24T04:11:17;9.60;;;7.38;;
34489;SDS011;20730;49.372;7.324;2023-04-24T04:13:44;12.07;;;8.05;;
34489;SDS011;20730;49.372;7.324;2023-04-24T04:16:16;10.77;;;8.05;;
34489;SDS011;20730;49.372;7.324;2023-04-24T04:18:44;11.50;;;7.65;;
34489;SDS011;20730;49.372;7.324;2023-04-24T04:21:11;9.80;;;8.00;;
34489;SDS011;20730;49.372;7.324;2023-04-24T04:23:38;9.85;;;7.30;;
34489;SDS011;20730;49.372;7.324;2023-04-24T04:26:12;10.90;;;7.57;;
34489;SDS011;20730;49.372;7.324;2023-04-24T04:28:54;11.35;;;7.95;;
34489;SDS011;20730;49.372;7.324;2023-04-24T04:31:21;11.68;;;7.47;;
34489;SDS011;20730;49.372;7.324;2023-04-24T04:33:48;12.38;;;7.68;;
34489;SDS011;20730;49.372;7.324;2023-04-24T04:36:15;12.65;;;7.82;;
34489;SDS011;20730;49.372;7.324;2023-04-24T04:38:47;11.52;;;7.70;;
34489;SDS011;20730;49.372;7.324;2023-04-24T04:41:33;11.25;;;7.78;;
34489;SDS011;20730;49.372;7.324;2023-04-24T04:46:31;12.40;;;8.18;;
34489;SDS011;20730;49.372;7.324;2023-04-24T04:49:07;10.88;;;8.20;;
34489;SDS011;20730;49.372;7.324;2023-04-24T04:51:35;12.38;;;9.10;;
34489;SDS011;20730;49.372;7.324;2023-04-24T04:54:02;16.45;;;9.30;;
34489;SDS011;20730;49.372;7.324;2023-04-24T04:56:28;13.20;;;8.88;;
34489;SDS011;20730;49.372;7.324;2023-04-24T04:58:57;12.30;;;9.10;;
34489;SDS011;20730;49.372;7.324;2023-04-24T05:01:25;11.50;;;9.13;;
34489;SDS011;20730;49.372;7.324;2023-04-24T05:03:54;14.88;;;9.52;;
34489;SDS011;20730;49.372;7.324;2023-04-24T05:06:21;14.48;;;8.90;;
34489;SDS011;20730;49.372;7.324;2023-04-24T05:08:50;14.70;;;9.68;;
34489;SDS011;20730;49.372;7.324;2023-04-24T05:11:29;15.57;;;8.95;;
34489;SDS011;20730;49.372;7.324;2023-04-24T05:13:57;14.32;;;8.98;;
34489;SDS011;20730;49.372;7.324;2023-04-24T05:16:33;15.13;;;9.15;;
34489;SDS011;20730;49.372;7.324;2023-04-24T05:19:00;14.10;;;10.02;;
34489;SDS011;20730;49.372;7.324;2023-04-24T05:21:32;12.55;;;9.10;;
34489;SDS011;20730;49.372;7.324;2023-04-24T05:23:59;15.35;;;9.70;;
34489;SDS011;20730;49.372;7.324;2023-04-24T05:26:44;11.75;;;9.75;;
34489;SDS011;20730;49.372;7.324;2023-04-24T05:29:13;13.90;;;9.70;;
34489;SDS011;20730;49.372;7.324;2023-04-24T05:31:41;12.15;;;8.52;;
34489;SDS011;20730;49.372;7.324;2023-04-24T05:34:08;13.73;;;9.10;;
34489;SDS011;20730;49.372;7.324;2023-04-24T05:36:39;12.93;;;9.10;;
34489;SDS011;20730;49.372;7.324;2023-04-24T05:39:07;13.40;;;8.23;;
34489;SDS011;20730;49.372;7.324;2023-04-24T05:41:34;13.77;;;8.77;;
34489;SDS011;20730;49.372;7.324;2023-04-24T05:44:01;11.27;;;8.90;;
34489;SDS011;20730;49.372;7.324;2023-04-24T05:46:28;11.80;;;8.45;;
34489;SDS011;20730;49.372;7.324;2023-04-24T05:48:55;9.88;;;7.90;;
34489;SDS011;20730;49.372;7.324;2023-04-24T05:51:22;8.50;;;6.43;;
34489;SDS011;20730;49.372;7.324;2023-04-24T05:53:49;9.45;;;6.72;;
34489;SDS011;20730;49.372;7.324;2023-04-24T05:56:16;8.85;;;6.63;;
34489;SDS011;20730;49.372;7.324;2023-04-24T05:58:43;8.50;;;5.75;;
34489;SDS011;20730;49.372;7.324;2023-04-24T06:01:09;9.18;;;6.15;;
34489;SDS011;20730;49.372;7.324;2023-04-24T06:03:38;7.95;;;6.18;;
34489;SDS011;20730;49.372;7.324;2023-04-24T06:06:06;6.45;;;5.22;;
34489;SDS011;20730;49.372;7.324;2023-04-24T06:08:34;8.48;;;5.47;;
34489;SDS011;20730;49.372;7.324;2023-04-24T06:11:02;9.48;;;5.85;;
34489;SDS011;20730;49.372;7.324;2023-04-24T06:13:30;10.38;;;5.50;;
34489;SDS011;20730;49.372;7.324;2023-04-24T06:16:32;10.13;;;5.38;;
34489;SDS011;20730;49.372;7.324;2023-04-24T06:19:05;7.20;;;5.68;;
34489;SDS011;20730;49.372;7.324;2023-04-24T06:21:31;6.90;;;5.00;;
34489;SDS011;20730;49.372;7.324;2023-04-24T06:23:58;8.70;;;5.47;;
34489;SDS011;20730;49.372;7.324;2023-04-24T06:26:25;9.38;;;5.05;;
34489;SDS011;20730;49.372;7.324;2023-04-24T06:28:52;7.68;;;5.25;;
34489;SDS011;20730;49.372;7.324;2023-04-24T06:31:20;5.45;;;4.68;;
34489;SDS011;20730;49.372;7.324;2023-04-24T06:33:47;8.77;;;5.65;;
34489;SDS011;20730;49.372;7.324;2023-04-24T06:36:14;6.72;;;5.57;;
34489;SDS011;20730;49.372;7.324;2023-04-24T06:38:41;6.10;;;5.15;;
34489;SDS011;20730;49.372;7.324;2023-04-24T06:41:09;7.35;;;5.18;;
34489;SDS011;20730;49.372;7.324;2023-04-24T06:43:36;7.45;;;5.40;;
34489;SDS011;20730;49.372;7.324;2023-04-24T06:46:02;5.88;;;4.38;;
34489;SDS011;20730;49.372;7.324;2023-04-24T06:48:29;6.60;;;4.60;;
34489;SDS011;20730;49.372;7.324;2023-04-24T06:50:56;4.70;;;3.95;;
34489;SDS011;20730;49.372;7.324;2023-04-24T06:53:23;7.25;;;4.80;;
34489;SDS011;20730;49.372;7.324;2023-04-24T06:55:49;5.97;;;4.60;;
34489;SDS011;20730;49.372;7.324;2023-04-24T06:58:17;6.20;;;4.63;;
34489;SDS011;20730;49.372;7.324;2023-04-24T07:00:44;11.23;;;4.78;;
34489;SDS011;20730;49.372;7.324;2023-04-24T07:03:11;5.65;;;4.75;;
34489;SDS011;20730;49.372;7.324;2023-04-24T07:05:38;7.05;;;5.05;;
34489;SDS011;20730;49.372;7.324;2023-04-24T07:08:05;6.22;;;4.65;;
34489;SDS011;20730;49.372;7.324;2023-04-24T07:10:33;6.75;;;5.43;;
34489;SDS011;20730;49.372;7.324;2023-04-24T07:13:01;6.82;;;5.13;;
34489;SDS011;20730;49.372;7.324;2023-04-24T07:15:28;8.55;;;4.85;;
34489;SDS011;20730;49.372;7.324;2023-04-24T07:17:55;7.38;;;4.93;;
34489;SDS011;20730;49.372;7.324;2023-04-24T07:20:21;6.28;;;5.43;;
34489;SDS011;20730;49.372;7.324;2023-04-24T07:22:48;6.25;;;5.20;;
34489;SDS011;20730;49.372;7.324;2023-04-24T07:25:15;8.32;;;5.35;;
34489;SDS011;20730;49.372;7.324;2023-04-24T07:27:42;8.95;;;5.63;;
34489;SDS011;20730;49.372;7.324;2023-04-24T07:30:09;8.48;;;5.10;;
34489;SDS011;20730;49.372;7.324;2023-04-24T07:32:36;7.72;;;5.43;;
34489;SDS011;20730;49.372;7.324;2023-04-24T07:35:05;6.43;;;4.95;;
34489;SDS011;20730;49.372;7.324;2023-04-24T07:37:31;7.47;;;5.60;;
34489;SDS011;20730;49.372;7.324;2023-04-24T07:39:58;5.43;;;4.38;;
34489;SDS011;20730;49.372;7.324;2023-04-24T07:42:25;6.35;;;5.00;;
34489;SDS011;20730;49.372;7.324;2023-04-24T07:44:51;5.60;;;5.00;;
34489;SDS011;20730;49.372;7.324;2023-04-24T07:47:18;7.55;;;4.93;;
34489;SDS011;20730;49.372;7.324;2023-04-24T07:49:45;7.57;;;5.22;;
34489;SDS011;20730;49.372;7.324;2023-04-24T07:52:11;6.57;;;4.85;;
34489;SDS011;20730;49.372;7.324;2023-04-24T07:54:38;7.72;;;5.10;;
34489;SDS011;20730;49.372;7.324;2023-04-24T07:57:05;7.10;;;5.10;;
34489;SDS011;20730;49.372;7.324;2023-04-24T07:59:33;9.32;;;5.60;;
34489;SDS011;20730;49.372;7.324;2023-04-24T08:01:59;5.32;;;4.68;;
34489;SDS011;20730;49.372;7.324;2023-04-24T08:04:27;7.22;;;5.95;;
34489;SDS011;20730;49.372;7.324;2023-04-24T08:06:54;7.28;;;5.35;;
34489;SDS011;20730;49.372;7.324;2023-04-24T08:09:21;6.82;;;5.20;;
34489;SDS011;20730;49.372;7.324;2023-04-24T08:11:48;7.07;;;5.50;;
34489;SDS011;20730;49.372;7.324;2023-04-24T08:14:14;7.50;;;5.70;;
34489;SDS011;20730;49.372;7.324;2023-04-24T08:16:41;8.77;;;5.45;;
34489;SDS011;20730;49.372;7.324;2023-04-24T08:19:08;8.27;;;5.68;;
34489;SDS011;20730;49.372;7.324;2023-04-24T08:21:34;9.20;;;5.93;;
34489;SDS011;20730;49.372;7.324;2023-04-24T08:24:01;10.38;;;6.45;;
34489;SDS011;20730;49.372;7.324;2023-04-24T08:26:31;9.30;;;6.03;;
34489;SDS011;20730;49.372;7.324;2023-04-24T08:28:58;10.02;;;6.20;;
34489;SDS011;20730;49.372;7.324;2023-04-24T08:31:25;9.93;;;6.25;;
34489;SDS011;20730;49.372;7.324;2023-04-24T08:33:52;11.02;;;6.72;;
34489;SDS011;20730;49.372;7.324;2023-04-24T08:36:19;9.55;;;6.57;;
34489;SDS011;20730;49.372;7.324;2023-04-24T08:38:45;8.68;;;6.70;;
34489;SDS011;20730;49.372;7.324;2023-04-24T08:41:12;9.65;;;6.70;;
34489;SDS011;20730;49.372;7.324;2023-04-24T08:43:40;10.88;;;6.30;;
34489;SDS011;20730;49.372;7.324;2023-04-24T08:46:08;8.25;;;6.22;;
34489;SDS011;20730;49.372;7.324;2023-04-24T08:48:37;7.03;;;5.15;;
34489;SDS011;20730;49.372;7.324;2023-04-24T08:51:05;7.75;;;5.78;;
34489;SDS011;20730;49.372;7.324;2023-04-24T08:53:33;8.40;;;5.70;;
34489;SDS011;20730;49.372;7.324;2023-04-24T08:56:01;8.80;;;5.93;;
34489;SDS011;20730;49.372;7.324;2023-04-24T08:58:29;8.13;;;5.38;;
34489;SDS011;20730;49.372;7.324;2023-04-24T09:00:57;5.90;;;4.95;;
34489;SDS011;20730;49.372;7.324;2023-04-24T09:03:24;6.75;;;5.43;;
34489;SDS011;20730;49.372;7.324;2023-04-24T09:05:54;8.10;;;5.22;;
34489;SDS011;20730;49.372;7.324;2023-04-24T09:08:23;8.40;;;6.57;;
34489;SDS011;20730;49.372;7.324;2023-04-24T09:10:51;11.45;;;7.00;;
34489;SDS011;20730;49.372;7.324;2023-04-24T09:13:21;8.50;;;6.10;;
34489;SDS011;20730;49.372;7.324;2023-04-24T09:15:48;8.05;;;5.88;;
34489;SDS011;20730;49.372;7.324;2023-04-24T09:18:14;9.05;;;6.38;;
34489;SDS011;20730;49.372;7.324;2023-04-24T09:20:57;9.23;;;6.10;;
34489;SDS011;20730;49.372;7.324;2023-04-24T09:23:25;14.20;;;6.63;;
34489;SDS011;20730;49.372;7.324;2023-04-24T09:25:56;9.45;;;6.13;;
34489;SDS011;20730;49.372;7.324;2023-04-24T09:31:14;8.70;;;6.93;;
34489;SDS011;20730;49.372;7.324;2023-04-24T09:33:54;10.93;;;7.25;;
34489;SDS011;20730;49.372;7.324;2023-04-24T09:36:31;10.32;;;7.97;;
34489;SDS011;20730;49.372;7.324;2023-04-24T09:39:00;13.73;;;8.63;;
34489;SDS011;20730;49.372;7.324;2023-04-24T09:41:27;15.13;;;8.65;;
34489;SDS011;20730;49.372;7.324;2023-04-24T09:43:58;11.02;;;8.77;;
34489;SDS011;20730;49.372;7.324;2023-04-24T09:46:37;12.75;;;8.07;;
34489;SDS011;20730;49.372;7.324;2023-04-24T09:49:08;11.57;;;7.97;;
34489;SDS011;20730;49.372;7.324;2023-04-24T09:51:36;12.95;;;7.90;;
34489;SDS011;20730;49.372;7.324;2023-04-24T09:54:04;11.75;;;8.55;;
34489;SDS011;20730;49.372;7.324;2023-04-24T09:56:41;10.65;;;8.18;;
34489;SDS011;20730;49.372;7.324;2023-04-24T09:59:10;11.02;;;7.93;;
34489;SDS011;20730;49.372;7.324;2023-04-24T10:01:36;10.43;;;7.18;;
34489;SDS011;20730;49.372;7.324;2023-04-24T10:04:04;11.93;;;8.48;;
34489;SDS011;20730;49.372;7.324;2023-04-24T10:06:35;10.77;;;8.75;;
34489;SDS011;20730;49.372;7.324;2023-04-24T10:11:30;13.77;;;8.45;;
34489;SDS011;20730;49.372;7.324;2023-04-24T10:13:56;10.90;;;8.02;;
34489;SDS011;20730;49.372;7.324;2023-04-24T10:16:24;10.38;;;7.82;;
34489;SDS011;20730;49.372;7.324;2023-04-24T10:18:50;10.52;;;6.20;;
34489;SDS011;20730;49.372;7.324;2023-04-24T10:21:17;10.10;;;7.20;;
34489;SDS011;20730;49.372;7.324;2023-04-24T10:23:44;9.18;;;5.90;;
34489;SDS011;20730;49.372;7.324;2023-04-24T10:26:13;8.00;;;6.35;;
34489;SDS011;20730;49.372;7.324;2023-04-24T10:28:44;12.38;;;8.38;;
34489;SDS011;20730;49.372;7.324;2023-04-24T10:31:12;11.50;;;6.90;;
34489;SDS011;20730;49.372;7.324;2023-04-24T10:33:42;10.45;;;6.57;;
34489;SDS011;20730;49.372;7.324;2023-04-24T10:36:10;11.20;;;6.40;;
34489;SDS011;20730;49.372;7.324;2023-04-24T10:38:37;9.20;;;6.75;;
34489;SDS011;20730;49.372;7.324;2023-04-24T10:41:11;9.27;;;7.07;;
34489;SDS011;20730;49.372;7.324;2023-04-24T10:43:46;10.80;;;7.13;;
34489;SDS011;20730;49.372;7.324;2023-04-24T10:46:21;8.90;;;6.72;;
34489;SDS011;20730;49.372;7.324;2023-04-24T10:48:54;9.20;;;7.13;;
34489;SDS011;20730;49.372;7.324;2023-04-24T10:51:22;9.85;;;7.38;;
34489;SDS011;20730;49.372;7.324;2023-04-24T10:53:50;10.43;;;7.20;;
34489;SDS011;20730;49.372;7.324;2023-04-24T10:56:17;9.27;;;7.32;;
34489;SDS011;20730;49.372;7.324;2023-04-24T10:58:45;10.02;;;6.45;;
34489;SDS011;20730;49.372;7.324;2023-04-24T11:03:56;10.18;;;5.90;;
34489;SDS011;20730;49.372;7.324;2023-04-24T11:06:31;8.77;;;5.85;;
34489;SDS011;20730;49.372;7.324;2023-04-24T11:09:03;10.65;;;6.88;;
34489;SDS011;20730;49.372;7.324;2023-04-24T11:11:32;10.77;;;6.00;;
34489;SDS011;20730;49.372;7.324;2023-04-24T11:16:27;12.05;;;6.38;;
34489;SDS011;20730;49.372;7.324;2023-04-24T11:19:02;10.15;;;6.50;;
34489;SDS011;20730;49.372;7.324;2023-04-24T11:21:59;7.93;;;6.10;;
34489;SDS011;20730;49.372;7.324;2023-04-24T11:24:31;10.15;;;6.45;;
34489;SDS011;20730;49.372;7.324;2023-04-24T11:29:43;9.80;;;6.35;;
34489;SDS011;20730;49.372;7.324;2023-04-24T11:32:15;11.18;;;6.32;;
34489;SDS011;20730;49.372;7.324;2023-04-24T11:34:46;9.48;;;6.18;;
34489;SDS011;20730;49.372;7.324;2023-04-24T11:37:14;12.93;;;6.70;;
34489;SDS011;20730;49.372;7.324;2023-04-24T11:39:41;8.98;;;6.20;;
34489;SDS011;20730;49.372;7.324;2023-04-24T11:42:10;12.25;;;6.68;;
34489;SDS011;20730;49.372;7.324;2023-04-24T11:44:41;8.60;;;6.75;;
34489;SDS011;20730;49.372;7.324;2023-04-24T11:47:08;12.10;;;6.80;;
34489;SDS011;20730;49.372;7.324;2023-04-24T11:49:37;10.50;;;6.47;;
34489;SDS011;20730;49.372;7.324;2023-04-24T11:52:05;13.40;;;7.05;;
34489;SDS011;20730;49.372;7.324;2023-04-24T11:54:32;10.05;;;6.10;;
34489;SDS011;20730;49.372;7.324;2023-04-24T11:56:59;10.25;;;6.15;;
34489;SDS011;20730;49.372;7.324;2023-04-24T11:59:34;14.00;;;6.43;;
34489;SDS011;20730;49.372;7.324;2023-04-24T12:02:01;7.60;;;5.55;;
34489;SDS011;20730;49.372;7.324;2023-04-24T12:04:37;8.75;;;5.60;;
34489;SDS011;20730;49.372;7.324;2023-04-24T12:07:08;8.48;;;5.95;;
34489;SDS011;20730;49.372;7.324;2023-04-24T12:09:41;11.50;;;6.85;;
34489;SDS011;20730;49.372;7.324;2023-04-24T12:12:09;9.35;;;5.88;;
34489;SDS011;20730;49.372;7.324;2023-04-24T12:17:15;8.25;;;5.47;;
34489;SDS011;20730;49.372;7.324;2023-04-24T12:19:48;7.25;;;5.47;;
34489;SDS011;20730;49.372;7.324;2023-04-24T12:22:16;8.95;;;5.72;;
34489;SDS011;20730;49.372;7.324;2023-04-24T12:24:56;7.60;;;5.57;;
34489;SDS011;20730;49.372;7.324;2023-04-24T12:27:30;9.40;;;5.78;;
34489;SDS011;20730;49.372;7.324;2023-04-24T12:29:58;12.30;;;6.35;;
34489;SDS011;20730;49.372;7.324;2023-04-24T12:32:26;10.88;;;6.00;;
34489;SDS011;20730;49.372;7.324;2023-04-24T12:34:54;9.25;;;5.85;;
34489;SDS011;20730;49.372;7.324;2023-04-24T12:37:25;8.63;;;6.63;;
34489;SDS011;20730;49.372;7.324;2023-04-24T12:40:02;9.18;;;6.93;;
34489;SDS011;20730;49.372;7.324;2023-04-24T12:42:30;7.07;;;5.32;;
34489;SDS011;20730;49.372;7.324;2023-04-24T12:45:05;8.90;;;6.63;;
34489;SDS011;20730;49.372;7.324;2023-04-24T12:47:32;8.25;;;6.38;;
34489;SDS011;20730;49.372;7.324;2023-04-24T12:50:00;10.07;;;7.10;;
34489;SDS011;20730;49.372;7.324;2023-04-24T12:52:28;9.60;;;7.07;;
34489;SDS011;20730;49.372;7.324;2023-04-24T12:54:58;12.23;;;8.50;;
34489;SDS011;20730;49.372;7.324;2023-04-24T12:57:26;10.82;;;8.52;;
34489;SDS011;20730;49.372;7.324;2023-04-24T12:59:54;14.50;;;8.82;;
34489;SDS011;20730;49.372;7.324;2023-04-24T13:02:22;11.20;;;8.10;;
34489;SDS011;20730;49.372;7.324;2023-04-24T13:04:50;11.05;;;6.90;;
34489;SDS011;20730;49.372;7.324;2023-04-24T13:07:17;11.65;;;7.95;;
34489;SDS011;20730;49.372;7.324;2023-04-24T13:09:44;10.70;;;8.00;;
34489;SDS011;20730;49.372;7.324;2023-04-24T13:12:11;10.15;;;7.88;;
34489;SDS011;20730;49.372;7.324;2023-04-24T13:14:38;12.52;;;7.97;;
34489;SDS011;20730;49.372;7.324;2023-04-24T13:17:05;9.20;;;7.57;;
34489;SDS011;20730;49.372;7.324;2023-04-24T13:19:38;8.70;;;6.40;;
34489;SDS011;20730;49.372;7.324;2023-04-24T13:22:06;12.35;;;6.90;;
34489;SDS011;20730;49.372;7.324;2023-04-24T13:24:33;11.93;;;6.88;;
34489;SDS011;20730;49.372;7.324;2023-04-24T13:26:59;11.18;;;6.65;;
34489;SDS011;20730;49.372;7.324;2023-04-24T13:29:27;10.95;;;6.78;;
34489;SDS011;20730;49.372;7.324;2023-04-24T13:31:54;6.57;;;5.18;;
34489;SDS011;20730;49.372;7.324;2023-04-24T13:34:24;9.85;;;6.20;;
34489;SDS011;20730;49.372;7.324;2023-04-24T13:36:52;6.65;;;5.80;;
34489;SDS011;20730;49.372;7.324;2023-04-24T13:39:20;8.90;;;5.88;;
34489;SDS011;20730;49.372;7.324;2023-04-24T13:41:47;8.57;;;5.88;;
34489;SDS011;20730;49.372;7.324;2023-04-24T13:44:15;7.32;;;5.40;;
34489;SDS011;20730;49.372;7.324;2023-04-24T13:46:43;7.05;;;5.03;;
34489;SDS011;20730;49.372;7.324;2023-04-24T13:49:12;6.28;;;5.22;;
34489;SDS011;20730;49.372;7.324;2023-04-24T13:51:40;8.35;;;5.15;;
34489;SDS011;20730;49.372;7.324;2023-04-24T13:54:07;8.30;;;5.18;;
34489;SDS011;20730;49.372;7.324;2023-04-24T13:56:33;7.57;;;5.70;;
34489;SDS011;20730;49.372;7.324;2023-04-24T13:59:01;9.25;;;5.35;;
34489;SDS011;20730;49.372;7.324;2023-04-24T14:01:28;7.45;;;5.68;;
34489;SDS011;20730;49.372;7.324;2023-04-24T14:03:55;8.40;;;5.47;;
34489;SDS011;20730;49.372;7.324;2023-04-24T14:06:22;9.15;;;5.72;;
34489;SDS011;20730;49.372;7.324;2023-04-24T14:08:49;9.77;;;6.90;;
34489;SDS011;20730;49.372;7.324;2023-04-24T14:11:17;9.48;;;7.47;;
34489;SDS011;20730;49.372;7.324;2023-04-24T14:13:44;9.75;;;6.45;;
34489;SDS011;20730;49.372;7.324;2023-04-24T14:16:12;9.23;;;5.70;;
34489;SDS011;20730;49.372;7.324;2023-04-24T14:18:39;7.03;;;5.68;;
34489;SDS011;20730;49.372;7.324;2023-04-24T14:21:06;6.43;;;5.25;;
34489;SDS011;20730;49.372;7.324;2023-04-24T14:23:33;6.55;;;5.00;;
34489;SDS011;20730;49.372;7.324;2023-04-24T14:25:59;7.30;;;5.32;;
34489;SDS011;20730;49.372;7.324;2023-04-24T14:28:27;10.73;;;6.40;;
34489;SDS011;20730;49.372;7.324;2023-04-24T14:30:54;9.98;;;6.35;;
34489;SDS011;20730;49.372;7.324;2023-04-24T14:33:21;8.77;;;6.70;;
34489;SDS011;20730;49.372;7.324;2023-04-24T14:35:47;12.13;;;7.63;;
34489;SDS011;20730;49.372;7.324;2023-04-24T14:38:14;8.10;;;6.30;;
34489;SDS011;20730;49.372;7.324;2023-04-24T14:40:41;8.07;;;7.15;;
34489;SDS011;20730;49.372;7.324;2023-04-24T14:43:11;8.00;;;6.40;;
34489;SDS011;20730;49.372;7.324;2023-04-24T14:45:38;10.55;;;5.80;;
34489;SDS011;20730;49.372;7.324;2023-04-24T14:48:07;7.28;;;5.18;;
34489;SDS011;20730;49.372;7.324;2023-04-24T14:50:35;6.45;;;4.55;;
34489;SDS011;20730;49.372;7.324;2023-04-24T14:53:02;6.55;;;5.35;;
34489;SDS011;20730;49.372;7.324;2023-04-24T14:55:28;6.45;;;4.15;;
34489;SDS011;20730;49.372;7.324;2023-04-24T14:57:55;5.15;;;4.13;;
34489;SDS011;20730;49.372;7.324;2023-04-24T15:00:22;5.18;;;4.10;;
34489;SDS011;20730;49.372;7.324;2023-04-24T15:02:50;5.97;;;4.15;;
34489;SDS011;20730;49.372;7.324;2023-04-24T15:05:17;6.00;;;4.20;;
34489;SDS011;20730;49.372;7.324;2023-04-24T15:07:44;6.13;;;4.40;;
34489;SDS011;20730;49.372;7.324;2023-04-24T15:10:11;5.68;;;4.30;;